sensor_id;sensor_type;location;lat;lon;timestamp;pressure;altitude;pressure_sealevel;temperature;humidity
14343;BME280;7255;53.596;9.960;2023-09-19T00:00:30;100120.19;;;17.45;nan
14343;BME280;7255;53.596;9.960;2023-09-19T00:02:58;100109.78;;;17.52;nan
14343;BME280;7255;53.596;9.960;2023-09-19T00:05:27;100121.38;;;17.63;nan
14343;BME280;7255;53.596;9.960;2023-09-19T00:07:56;100111.31;;;17.63;nan
14343;BME280;7255;53.596;9.960;2023-09-19T00:10:24;100113.38;;;17.47;nan
14343;BME280;7255;53.596;9.960;2023-09-19T00:12:52;100114.84;;;17.35;nan
14343;BME280;7255;53.596;9.960;2023-09-19T00:15:21;100111.03;;;17.36;nan
14343;BME280;7255;53.596;9.960;2023-09-19T00:17:47;100118.16;;;17.26;nan
14343;BME280;7255;53.596;9.960;2023-09-19T00:20:14;100120.28;;;17.35;nan
14343;BME280;7255;53.596;9.960;2023-09-19T00:22:43;100127.81;;;17.43;nan
14343;BME280;7255;53.596;9.960;2023-09-19T00:25:10;100127.88;;;17.32;nan
14343;BME280;7255;53.596;9.960;2023-09-19T00:27:37;100114.63;;;17.31;nan
14343;BME280;7255;53.596;9.960;2023-09-19T00:30:07;100121.50;;;17.18;nan
14343;BME280;7255;53.596;9.960;2023-09-19T00:32:39;100123.66;;;17.16;nan
14343;BME280;7255;53.596;9.960;2023-09-19T00:35:06;100115.59;;;17.11;nan
14343;BME280;7255;53.596;9.960;2023-09-19T00:37:33;100120.19;;;17.10;nan
14343;BME280;7255;53.596;9.960;2023-09-19T00:40:00;100125.84;;;17.14;nan
14343;BME280;7255;53.596;9.960;2023-09-19T00:42:27;100125.13;;;17.03;nan
14343;BME280;7255;53.596;9.960;2023-09-19T00:44:53;100119.44;;;17.00;nan
14343;BME280;7255;53.596;9.960;2023-09-19T00:47:20;100115.66;;;17.01;nan
14343;BME280;7255;53.596;9.960;2023-09-19T00:49:46;100115.91;;;17.04;nan
14343;BME280;7255;53.596;9.960;2023-09-19T00:52:15;100119.44;;;17.00;nan
14343;BME280;7255;53.596;9.960;2023-09-19T00:54:45;100122.72;;;17.02;nan
14343;BME280;7255;53.596;9.960;2023-09-19T00:57:13;100131.94;;;17.01;nan
14343;BME280;7255;53.596;9.960;2023-09-19T00:59:40;100127.63;;;16.95;nan
14343;BME280;7255;53.596;9.960;2023-09-19T01:02:07;100136.22;;;17.07;nan
14343;BME280;7255;53.596;9.960;2023-09-19T01:04:34;100131.13;;;17.00;nan
14343;BME280;7255;53.596;9.960;2023-09-19T01:07:00;100130.78;;;17.07;nan
14343;BME280;7255;53.596;9.960;2023-09-19T01:09:27;100134.84;;;17.09;nan
14343;BME280;7255;53.596;9.960;2023-09-19T01:11:58;100142.22;;;17.04;nan
14343;BME280;7255;53.596;9.960;2023-09-19T01:14:32;100141.41;;;17.03;nan
14343;BME280;7255;53.596;9.960;2023-09-19T01:17:03;100139.53;;;16.99;nan
14343;BME280;7255;53.596;9.960;2023-09-19T01:22:43;100137.59;;;17.04;nan
14343;BME280;7255;53.596;9.960;2023-09-19T01:25:33;100145.53;;;16.96;nan
14343;BME280;7255;53.596;9.960;2023-09-19T01:28:20;100151.53;;;16.92;nan
14343;BME280;7255;53.596;9.960;2023-09-19T01:30:51;100150.94;;;16.96;nan
14343;BME280;7255;53.596;9.960;2023-09-19T01:33:20;100156.72;;;16.84;nan
14343;BME280;7255;53.596;9.960;2023-09-19T01:35:46;100147.78;;;16.83;nan
14343;BME280;7255;53.596;9.960;2023-09-19T01:38:14;100161.31;;;16.88;nan
14343;BME280;7255;53.596;9.960;2023-09-19T01:40:42;100149.91;;;16.91;nan
14343;BME280;7255;53.596;9.960;2023-09-19T01:43:12;100153.13;;;16.93;nan
14343;BME280;7255;53.596;9.960;2023-09-19T01:45:47;100159.94;;;16.91;nan
14343;BME280;7255;53.596;9.960;2023-09-19T01:48:28;100157.81;;;16.83;nan
14343;BME280;7255;53.596;9.960;2023-09-19T01:51:00;100158.66;;;16.73;nan
14343;BME280;7255;53.596;9.960;2023-09-19T01:53:28;100175.19;;;16.77;nan
14343;BME280;7255;53.596;9.960;2023-09-19T01:55:57;100170.56;;;16.77;nan
14343;BME280;7255;53.596;9.960;2023-09-19T01:58:27;100170.56;;;16.77;nan
14343;BME280;7255;53.596;9.960;2023-09-19T02:00:56;100169.00;;;16.66;nan
14343;BME280;7255;53.596;9.960;2023-09-19T02:03:26;100169.53;;;16.63;nan
14343;BME280;7255;53.596;9.960;2023-09-19T02:05:54;100181.00;;;16.49;nan
14343;BME280;7255;53.596;9.960;2023-09-19T02:08:22;100172.03;;;16.54;nan
14343;BME280;7255;53.596;9.960;2023-09-19T02:10:49;100187.47;;;16.53;nan
14343;BME280;7255;53.596;9.960;2023-09-19T02:13:15;100181.28;;;16.43;nan
14343;BME280;7255;53.596;9.960;2023-09-19T02:15:43;100189.19;;;16.34;nan
14343;BME280;7255;53.596;9.960;2023-09-19T02:18:10;100184.03;;;16.38;nan
14343;BME280;7255;53.596;9.960;2023-09-19T02:20:38;100193.25;;;16.36;nan
14343;BME280;7255;53.596;9.960;2023-09-19T02:23:05;100202.16;;;16.42;nan
14343;BME280;7255;53.596;9.960;2023-09-19T02:25:33;100209.22;;;16.43;nan
14343;BME280;7255;53.596;9.960;2023-09-19T02:28:00;100203.81;;;16.43;nan
14343;BME280;7255;53.596;9.960;2023-09-19T02:30:28;100195.41;;;16.34;nan
14343;BME280;7255;53.596;9.960;2023-09-19T02:32:55;100191.59;;;16.35;nan
14343;BME280;7255;53.596;9.960;2023-09-19T02:35:21;100197.84;;;16.36;nan
14343;BME280;7255;53.596;9.960;2023-09-19T02:37:49;100199.78;;;16.30;nan
14343;BME280;7255;53.596;9.960;2023-09-19T02:40:15;100197.34;;;16.29;nan
14343;BME280;7255;53.596;9.960;2023-09-19T02:42:45;100201.38;;;16.31;nan
14343;BME280;7255;53.596;9.960;2023-09-19T02:45:14;100202.75;;;16.29;nan
14343;BME280;7255;53.596;9.960;2023-09-19T02:47:40;100210.34;;;16.27;nan
14343;BME280;7255;53.596;9.960;2023-09-19T02:50:07;100205.19;;;16.30;nan
14343;BME280;7255;53.596;9.960;2023-09-19T02:52:34;100207.06;;;16.35;nan
14343;BME280;7255;53.596;9.960;2023-09-19T02:55:02;100203.81;;;16.33;nan
14343;BME280;7255;53.596;9.960;2023-09-19T02:57:31;100207.59;;;16.32;nan
14343;BME280;7255;53.596;9.960;2023-09-19T02:59:58;100202.19;;;16.32;nan
14343;BME280;7255;53.596;9.960;2023-09-19T03:02:26;100206.53;;;16.28;nan
14343;BME280;7255;53.596;9.960;2023-09-19T03:04:53;100194.62;;;16.34;nan
14343;BME280;7255;53.596;9.960;2023-09-19T03:07:21;100202.72;;;16.39;nan
14343;BME280;7255;53.596;9.960;2023-09-19T03:09:47;100203.81;;;16.43;nan
14343;BME280;7255;53.596;9.960;2023-09-19T03:12:15;100203.50;;;16.50;nan
14343;BME280;7255;53.596;9.960;2023-09-19T03:14:41;100217.84;;;16.55;nan
14343;BME280;7255;53.596;9.960;2023-09-19T03:17:08;100210.25;;;16.58;nan
14343;BME280;7255;53.596;9.960;2023-09-19T03:19:34;100216.78;;;16.51;nan
14343;BME280;7255;53.596;9.960;2023-09-19T03:22:03;100226.81;;;16.51;nan
14343;BME280;7255;53.596;9.960;2023-09-19T03:24:29;100227.63;;;16.51;nan
14343;BME280;7255;53.596;9.960;2023-09-19T03:26:56;100221.94;;;16.48;nan
14343;BME280;7255;53.596;9.960;2023-09-19T03:29:24;100230.09;;;16.43;nan
14343;BME280;7255;53.596;9.960;2023-09-19T03:31:52;100227.34;;;16.53;nan
14343;BME280;7255;53.596;9.960;2023-09-19T03:34:19;100233.31;;;16.55;nan
14343;BME280;7255;53.596;9.960;2023-09-19T03:36:46;100231.72;;;16.44;nan
14343;BME280;7255;53.596;9.960;2023-09-19T03:39:12;100237.41;;;16.47;nan
14343;BME280;7255;53.596;9.960;2023-09-19T03:41:40;100235.75;;;16.46;nan
14343;BME280;7255;53.596;9.960;2023-09-19T03:44:07;100237.41;;;16.37;nan
14343;BME280;7255;53.596;9.960;2023-09-19T03:46:35;100243.94;;;16.31;nan
14343;BME280;7255;53.596;9.960;2023-09-19T03:49:01;100241.25;;;16.26;nan
14343;BME280;7255;53.596;9.960;2023-09-19T03:51:28;100236.38;;;16.23;nan
14343;BME280;7255;53.596;9.960;2023-09-19T03:53:54;100243.97;;;16.21;nan
14343;BME280;7255;53.596;9.960;2023-09-19T03:56:21;100254.25;;;16.24;nan
14343;BME280;7255;53.596;9.960;2023-09-19T03:58:47;100266.22;;;16.17;nan
14343;BME280;7255;53.596;9.960;2023-09-19T04:01:14;100257.81;;;15.98;nan
14343;BME280;7255;53.596;9.960;2023-09-19T04:03:43;100249.69;;;15.83;nan
14343;BME280;7255;53.596;9.960;2023-09-19T04:06:13;100256.44;;;15.81;nan
14343;BME280;7255;53.596;9.960;2023-09-19T04:08:39;100254.25;;;15.72;nan
14343;BME280;7255;53.596;9.960;2023-09-19T04:11:06;100258.03;;;15.71;nan
14343;BME280;7255;53.596;9.960;2023-09-19T04:13:33;100272.38;;;15.56;nan
14343;BME280;7255;53.596;9.960;2023-09-19T04:15:59;100265.62;;;15.59;nan
14343;BME280;7255;53.596;9.960;2023-09-19T04:18:25;100269.41;;;15.48;nan
14343;BME280;7255;53.596;9.960;2023-09-19T04:20:53;100283.47;;;15.45;nan
14343;BME280;7255;53.596;9.960;2023-09-19T04:23:21;100279.69;;;15.40;nan
14343;BME280;7255;53.596;9.960;2023-09-19T04:25:47;100276.12;;;15.25;nan
14343;BME280;7255;53.596;9.960;2023-09-19T04:28:14;100278.56;;;15.26;nan
14343;BME280;7255;53.596;9.960;2023-09-19T04:30:40;100274.72;;;15.07;nan
14343;BME280;7255;53.596;9.960;2023-09-19T04:33:07;100304.72;;;15.05;nan
14343;BME280;7255;53.596;9.960;2023-09-19T04:35:34;100302.84;;;15.00;nan
14343;BME280;7255;53.596;9.960;2023-09-19T04:38:01;100310.41;;;15.04;nan
14343;BME280;7255;53.596;9.960;2023-09-19T04:40:28;100316.91;;;15.02;nan
14343;BME280;7255;53.596;9.960;2023-09-19T04:42:55;100306.88;;;15.03;nan
14343;BME280;7255;53.596;9.960;2023-09-19T04:45:22;100314.97;;;14.98;nan
14343;BME280;7255;53.596;9.960;2023-09-19T04:47:48;100316.38;;;15.06;nan
14343;BME280;7255;53.596;9.960;2023-09-19T04:50:15;100325.56;;;15.05;nan
14343;BME280;7255;53.596;9.960;2023-09-19T04:52:42;100327.72;;;15.02;nan
14343;BME280;7255;53.596;9.960;2023-09-19T04:55:10;100314.16;;;14.97;nan
14343;BME280;7255;53.596;9.960;2023-09-19T04:57:42;100321.75;;;14.95;nan
14343;BME280;7255;53.596;9.960;2023-09-19T05:00:09;100329.03;;;14.90;nan
14343;BME280;7255;53.596;9.960;2023-09-19T05:02:38;100330.34;;;14.87;nan
14343;BME280;7255;53.596;9.960;2023-09-19T05:05:06;100334.44;;;14.90;nan
14343;BME280;7255;53.596;9.960;2023-09-19T05:07:33;100328.22;;;14.89;nan
14343;BME280;7255;53.596;9.960;2023-09-19T05:09:59;100336.81;;;14.81;nan
14343;BME280;7255;53.596;9.960;2023-09-19T05:12:27;100335.47;;;14.83;nan
14343;BME280;7255;53.596;9.960;2023-09-19T05:14:53;100329.78;;;14.85;nan
14343;BME280;7255;53.596;9.960;2023-09-19T05:17:20;100340.59;;;14.80;nan
14343;BME280;7255;53.596;9.960;2023-09-19T05:19:46;100346.81;;;14.80;nan
14343;BME280;7255;53.596;9.960;2023-09-19T05:22:13;100344.16;;;14.86;nan
14343;BME280;7255;53.596;9.960;2023-09-19T05:24:39;100340.53;;;14.70;nan
14343;BME280;7255;53.596;9.960;2023-09-19T05:27:05;100345.94;;;14.70;nan
14343;BME280;7255;53.596;9.960;2023-09-19T05:29:33;100348.91;;;14.68;nan
14343;BME280;7255;53.596;9.960;2023-09-19T05:32:00;100348.09;;;14.68;nan
14343;BME280;7255;53.596;9.960;2023-09-19T05:34:26;100348.03;;;14.57;nan
14343;BME280;7255;53.596;9.960;2023-09-19T05:36:55;100349.66;;;14.58;nan
14343;BME280;7255;53.596;9.960;2023-09-19T05:39:21;100344.00;;;14.65;nan
14343;BME280;7255;53.596;9.960;2023-09-19T05:41:48;100351.56;;;14.63;nan
14343;BME280;7255;53.596;9.960;2023-09-19T05:44:14;100341.59;;;14.63;nan
14343;BME280;7255;53.596;9.960;2023-09-19T05:46:41;100342.09;;;14.60;nan
14343;BME280;7255;53.596;9.960;2023-09-19T05:49:08;100343.19;;;14.65;nan
14343;BME280;7255;53.596;9.960;2023-09-19T05:51:34;100365.87;;;14.58;nan
14343;BME280;7255;53.596;9.960;2023-09-19T05:54:00;100367.16;;;14.56;nan
14343;BME280;7255;53.596;9.960;2023-09-19T05:56:27;100358.31;;;14.60;nan
14343;BME280;7255;53.596;9.960;2023-09-19T05:58:53;100360.97;;;14.55;nan
14343;BME280;7255;53.596;9.960;2023-09-19T06:01:19;100368.91;;;14.67;nan
14343;BME280;7255;53.596;9.960;2023-09-19T06:03:47;100367.06;;;14.73;nan
14343;BME280;7255;53.596;9.960;2023-09-19T06:06:14;100368.22;;;14.87;nan
14343;BME280;7255;53.596;9.960;2023-09-19T06:08:40;100359.59;;;14.95;nan
14343;BME280;7255;53.596;9.960;2023-09-19T06:11:09;100361.28;;;15.07;nan
14343;BME280;7255;53.596;9.960;2023-09-19T06:13:35;100374.91;;;15.32;nan
14343;BME280;7255;53.596;9.960;2023-09-19T06:16:03;100368.41;;;15.28;nan
14343;BME280;7255;53.596;9.960;2023-09-19T06:18:30;100373.84;;;15.38;nan
14343;BME280;7255;53.596;9.960;2023-09-19T06:21:00;100375.25;;;15.46;nan
14343;BME280;7255;53.596;9.960;2023-09-19T06:23:32;100377.94;;;15.41;nan
14343;BME280;7255;53.596;9.960;2023-09-19T06:25:59;100373.88;;;15.44;nan
14343;BME280;7255;53.596;9.960;2023-09-19T06:28:25;100377.72;;;15.58;nan
14343;BME280;7255;53.596;9.960;2023-09-19T06:30:53;100388.03;;;15.71;nan
14343;BME280;7255;53.596;9.960;2023-09-19T06:33:20;100382.63;;;15.71;nan
14343;BME280;7255;53.596;9.960;2023-09-19T06:35:47;100399.47;;;15.78;nan
14343;BME280;7255;53.596;9.960;2023-09-19T06:38:14;100387.97;;;15.51;nan
14343;BME280;7255;53.596;9.960;2023-09-19T06:40:42;100397.22;;;15.60;nan
14343;BME280;7255;53.596;9.960;2023-09-19T06:43:09;100407.03;;;15.76;nan
14343;BME280;7255;53.596;9.960;2023-09-19T06:45:36;100405.94;;;15.72;nan
14343;BME280;7255;53.596;9.960;2023-09-19T06:48:02;100382.03;;;15.54;nan
14343;BME280;7255;53.596;9.960;2023-09-19T06:50:30;100399.13;;;15.65;nan
14343;BME280;7255;53.596;9.960;2023-09-19T06:52:58;100399.19;;;15.75;nan
14343;BME280;7255;53.596;9.960;2023-09-19T06:55:26;100399.19;;;15.75;nan
14343;BME280;7255;53.596;9.960;2023-09-19T06:57:53;100400.59;;;16.03;nan
14343;BME280;7255;53.596;9.960;2023-09-19T07:00:20;100408.19;;;16.01;nan
14343;BME280;7255;53.596;9.960;2023-09-19T07:02:55;100406.03;;;16.24;nan
14343;BME280;7255;53.596;9.960;2023-09-19T07:05:21;100416.87;;;16.24;nan
14343;BME280;7255;53.596;9.960;2023-09-19T07:07:48;100420.41;;;16.29;nan
14343;BME280;7255;53.596;9.960;2023-09-19T07:10:14;100417.97;;;16.17;nan
14343;BME280;7255;53.596;9.960;2023-09-19T07:12:42;100419.03;;;16.11;nan
14343;BME280;7255;53.596;9.960;2023-09-19T07:15:09;100426.63;;;16.09;nan
14343;BME280;7255;53.596;9.960;2023-09-19T07:17:35;100430.69;;;16.02;nan
14343;BME280;7255;53.596;9.960;2023-09-19T07:20:02;100445.06;;;16.28;nan
14343;BME280;7255;53.596;9.960;2023-09-19T07:22:32;100439.94;;;16.42;nan
14343;BME280;7255;53.596;9.960;2023-09-19T07:24:59;100442.38;;;16.33;nan
14343;BME280;7255;53.596;9.960;2023-09-19T07:27:25;100448.88;;;16.47;nan
14343;BME280;7255;53.596;9.960;2023-09-19T07:29:52;100453.22;;;16.64;nan
14343;BME280;7255;53.596;9.960;2023-09-19T07:32:19;100447.81;;;16.64;nan
14343;BME280;7255;53.596;9.960;2023-09-19T07:34:45;100449.97;;;16.51;nan
14343;BME280;7255;53.596;9.960;2023-09-19T07:37:11;100452.16;;;16.60;nan
14343;BME280;7255;53.596;9.960;2023-09-19T07:39:40;100456.47;;;16.66;nan
14343;BME280;7255;53.596;9.960;2023-09-19T07:42:07;100464.88;;;16.59;nan
14343;BME280;7255;53.596;9.960;2023-09-19T07:44:35;100471.13;;;16.54;nan
14343;BME280;7255;53.596;9.960;2023-09-19T07:47:02;100475.47;;;16.61;nan
14343;BME280;7255;53.596;9.960;2023-09-19T07:49:29;100471.13;;;16.49;nan
14343;BME280;7255;53.596;9.960;2023-09-19T07:51:55;100465.62;;;16.13;nan
14343;BME280;7255;53.596;9.960;2023-09-19T07:54:22;100483.22;;;16.01;nan
14343;BME280;7255;53.596;9.960;2023-09-19T07:56:48;100461.16;;;15.66;nan
14343;BME280;7255;53.596;9.960;2023-09-19T07:59:14;100466.94;;;15.32;nan
14343;BME280;7255;53.596;9.960;2023-09-19T08:01:41;100457.19;;;15.26;nan
14343;BME280;7255;53.596;9.960;2023-09-19T08:04:10;100462.47;;;15.06;nan
14343;BME280;7255;53.596;9.960;2023-09-19T08:06:36;100447.84;;;15.07;nan
14343;BME280;7255;53.596;9.960;2023-09-19T08:09:04;100465.66;;;14.97;nan
14343;BME280;7255;53.596;9.960;2023-09-19T08:11:33;100449.16;;;14.99;nan
14343;BME280;7255;53.596;9.960;2023-09-19T08:13:59;100463.50;;;14.99;nan
14343;BME280;7255;53.596;9.960;2023-09-19T08:16:25;100467.91;;;15.11;nan
14343;BME280;7255;53.596;9.960;2023-09-19T08:18:51;100466.38;;;15.25;nan
14343;BME280;7255;53.596;9.960;2023-09-19T08:21:21;100467.47;;;15.29;nan
14343;BME280;7255;53.596;9.960;2023-09-19T08:23:49;100468.59;;;15.38;nan
14343;BME280;7255;53.596;9.960;2023-09-19T08:26:15;100467.53;;;15.39;nan
14343;BME280;7255;53.596;9.960;2023-09-19T08:28:42;100475.19;;;15.58;nan
14343;BME280;7255;53.596;9.960;2023-09-19T08:31:08;100473.59;;;15.67;nan
14343;BME280;7255;53.596;9.960;2023-09-19T08:33:36;100464.19;;;15.75;nan
14343;BME280;7255;53.596;9.960;2023-09-19T08:36:04;100465.00;;;15.75;nan
14343;BME280;7255;53.596;9.960;2023-09-19T08:38:33;100472.03;;;15.76;nan
14343;BME280;7255;53.596;9.960;2023-09-19T08:41:00;100474.84;;;16.02;nan
14343;BME280;7255;53.596;9.960;2023-09-19T08:43:26;100480.28;;;16.12;nan
14343;BME280;7255;53.596;9.960;2023-09-19T08:45:58;100474.31;;;16.05;nan
14343;BME280;7255;53.596;9.960;2023-09-19T08:48:26;100473.50;;;16.05;nan
14343;BME280;7255;53.596;9.960;2023-09-19T08:50:56;100476.22;;;16.20;nan
14343;BME280;7255;53.596;9.960;2023-09-19T08:53:27;100471.13;;;16.34;nan
14343;BME280;7255;53.596;9.960;2023-09-19T08:55:59;100481.69;;;16.61;nan
14343;BME280;7255;53.596;9.960;2023-09-19T08:58:31;100477.37;;;16.65;nan
14343;BME280;7255;53.596;9.960;2023-09-19T09:00:58;100484.37;;;16.35;nan
14343;BME280;7255;53.596;9.960;2023-09-19T09:03:27;100480.06;;;16.40;nan
14343;BME280;7255;53.596;9.960;2023-09-19T09:05:56;100495.53;;;16.70;nan
14343;BME280;7255;53.596;9.960;2023-09-19T09:08:23;100491.72;;;16.81;nan
14343;BME280;7255;53.596;9.960;2023-09-19T09:10:50;100495.28;;;16.97;nan
14343;BME280;7255;53.596;9.960;2023-09-19T09:13:18;100501.78;;;17.01;nan
14343;BME280;7255;53.596;9.960;2023-09-19T09:15:47;100504.50;;;17.06;nan
14343;BME280;7255;53.596;9.960;2023-09-19T09:18:13;100506.62;;;17.25;nan
14343;BME280;7255;53.596;9.960;2023-09-19T09:20:39;100513.19;;;17.19;nan
14343;BME280;7255;53.596;9.960;2023-09-19T09:23:06;100505.88;;;17.04;nan
14343;BME280;7255;53.596;9.960;2023-09-19T09:25:49;100512.38;;;17.18;nan
14343;BME280;7255;53.596;9.960;2023-09-19T09:28:22;100515.31;;;17.47;nan
14343;BME280;7255;53.596;9.960;2023-09-19T09:30:49;100518.25;;;17.56;nan
14343;BME280;7255;53.596;9.960;2023-09-19T09:33:16;100518.25;;;17.56;nan
14343;BME280;7255;53.596;9.960;2023-09-19T09:35:50;100501.41;;;17.59;nan
14343;BME280;7255;53.596;9.960;2023-09-19T09:38:18;100515.06;;;18.09;nan
14343;BME280;7255;53.596;9.960;2023-09-19T09:40:50;100517.00;;;18.03;nan
14343;BME280;7255;53.596;9.960;2023-09-19T09:43:31;100514.56;;;17.97;nan
14343;BME280;7255;53.596;9.960;2023-09-19T09:46:11;100513.59;;;17.67;nan
14343;BME280;7255;53.596;9.960;2023-09-19T09:48:57;100512.84;;;17.46;nan
14343;BME280;7255;53.596;9.960;2023-09-19T09:51:37;100513.31;;;17.63;nan
14343;BME280;7255;53.596;9.960;2023-09-19T09:54:10;100517.16;;;17.62;nan
14343;BME280;7255;53.596;9.960;2023-09-19T09:56:52;100512.53;;;17.63;nan
14343;BME280;7255;53.596;9.960;2023-09-19T09:59:20;100517.09;;;17.73;nan
14343;BME280;7255;53.596;9.960;2023-09-19T10:01:49;100511.37;;;17.89;nan
14343;BME280;7255;53.596;9.960;2023-09-19T10:04:27;100510.28;;;17.85;nan
14343;BME280;7255;53.596;9.960;2023-09-19T10:06:55;100510.47;;;18.04;nan
14343;BME280;7255;53.596;9.960;2023-09-19T10:09:22;100512.84;;;18.16;nan
14343;BME280;7255;53.596;9.960;2023-09-19T10:12:03;100517.09;;;18.33;nan
14343;BME280;7255;53.596;9.960;2023-09-19T10:14:33;100514.63;;;18.36;nan
14343;BME280;7255;53.596;9.960;2023-09-19T10:17:04;100519.53;;;18.39;nan
14343;BME280;7255;53.596;9.960;2023-09-19T10:19:37;100520.06;;;18.36;nan
14343;BME280;7255;53.596;9.960;2023-09-19T10:22:05;100519.56;;;18.34;nan
14343;BME280;7255;53.596;9.960;2023-09-19T10:24:35;100529.50;;;18.49;nan
14343;BME280;7255;53.596;9.960;2023-09-19T10:27:04;100517.97;;;18.62;nan
14343;BME280;7255;53.596;9.960;2023-09-19T10:29:35;100521.50;;;19.02;nan
14343;BME280;7255;53.596;9.960;2023-09-19T10:32:03;100522.59;;;19.31;nan
14343;BME280;7255;53.596;9.960;2023-09-19T10:34:31;100521.03;;;18.95;nan
14343;BME280;7255;53.596;9.960;2023-09-19T10:37:01;100520.62;;;18.73;nan
14343;BME280;7255;53.596;9.960;2023-09-19T10:39:32;100514.84;;;18.84;nan
14343;BME280;7255;53.596;9.960;2023-09-19T10:42:02;100520.12;;;19.05;nan
14343;BME280;7255;53.596;9.960;2023-09-19T10:44:32;100514.38;;;19.36;nan
14343;BME280;7255;53.596;9.960;2023-09-19T10:47:00;100521.91;;;19.20;nan
14343;BME280;7255;53.596;9.960;2023-09-19T10:49:28;100522.38;;;19.27;nan
14343;BME280;7255;53.596;9.960;2023-09-19T10:51:59;100525.37;;;19.26;nan
14343;BME280;7255;53.596;9.960;2023-09-19T10:54:29;100521.97;;;19.10;nan
14343;BME280;7255;53.596;9.960;2023-09-19T10:56:59;100516.06;;;19.02;nan
14343;BME280;7255;53.596;9.960;2023-09-19T10:59:30;100515.97;;;19.13;nan
14343;BME280;7255;53.596;9.960;2023-09-19T11:02:16;100529.53;;;19.18;nan
14343;BME280;7255;53.596;9.960;2023-09-19T11:04:43;100531.06;;;19.29;nan
14343;BME280;7255;53.596;9.960;2023-09-19T11:07:13;100529.53;;;19.18;nan
14343;BME280;7255;53.596;9.960;2023-09-19T11:09:45;100529.31;;;19.14;nan
14343;BME280;7255;53.596;9.960;2023-09-19T11:12:11;100527.09;;;19.16;nan
14343;BME280;7255;53.596;9.960;2023-09-19T11:14:40;100518.69;;;19.42;nan
14343;BME280;7255;53.596;9.960;2023-09-19T11:17:41;100516.94;;;19.51;nan
14343;BME280;7255;53.596;9.960;2023-09-19T11:20:32;100528.37;;;19.24;nan
14343;BME280;7255;53.596;9.960;2023-09-19T11:23:20;100526.75;;;18.54;nan
14343;BME280;7255;53.596;9.960;2023-09-19T11:25:50;100525.37;;;18.57;nan
14343;BME280;7255;53.596;9.960;2023-09-19T11:28:32;100516.25;;;18.82;nan
14343;BME280;7255;53.596;9.960;2023-09-19T11:30:58;100519.16;;;18.91;nan
14343;BME280;7255;53.596;9.960;2023-09-19T11:33:27;100519.13;;;19.25;nan
14343;BME280;7255;53.596;9.960;2023-09-19T11:36:01;100520.62;;;19.36;nan
14343;BME280;7255;53.596;9.960;2023-09-19T11:38:59;100522.59;;;19.31;nan
14343;BME280;7255;53.596;9.960;2023-09-19T11:41:36;100521.22;;;19.57;nan
14343;BME280;7255;53.596;9.960;2023-09-19T11:44:36;100521.16;;;19.62;nan
14343;BME280;7255;53.596;9.960;2023-09-19T11:47:04;100517.88;;;19.66;nan
14343;BME280;7255;53.596;9.960;2023-09-19T11:49:33;100509.34;;;19.48;nan
14343;BME280;7255;53.596;9.960;2023-09-19T11:52:03;100497.56;;;19.29;nan
14343;BME280;7255;53.596;9.960;2023-09-19T11:54:31;100511.81;;;19.20;nan
14343;BME280;7255;53.596;9.960;2023-09-19T11:56:58;100513.56;;;19.35;nan
14343;BME280;7255;53.596;9.960;2023-09-19T11:59:26;100505.09;;;19.61;nan
14343;BME280;7255;53.596;9.960;2023-09-19T12:01:54;100509.59;;;19.71;nan
14343;BME280;7255;53.596;9.960;2023-09-19T12:04:35;100515.56;;;19.78;nan
14343;BME280;7255;53.596;9.960;2023-09-19T12:07:03;100501.37;;;20.00;nan
14343;BME280;7255;53.596;9.960;2023-09-19T12:09:30;100515.84;;;20.19;nan
14343;BME280;7255;53.596;9.960;2023-09-19T12:11:57;100516.56;;;20.06;nan
14343;BME280;7255;53.596;9.960;2023-09-19T12:14:23;100521.06;;;20.16;nan
14343;BME280;7255;53.596;9.960;2023-09-19T12:16:53;100526.78;;;19.71;nan
14343;BME280;7255;53.596;9.960;2023-09-19T12:19:21;100511.59;;;19.65;nan
14343;BME280;7255;53.596;9.960;2023-09-19T12:21:56;100513.69;;;19.97;nan
14343;BME280;7255;53.596;9.960;2023-09-19T12:24:25;100508.81;;;19.94;nan
14343;BME280;7255;53.596;9.960;2023-09-19T12:26:52;100505.94;;;19.86;nan
14343;BME280;7255;53.596;9.960;2023-09-19T12:29:19;100524.13;;;19.66;nan
14343;BME280;7255;53.596;9.960;2023-09-19T12:31:49;100521.69;;;19.65;nan
14343;BME280;7255;53.596;9.960;2023-09-19T12:34:19;100510.22;;;19.68;nan
14343;BME280;7255;53.596;9.960;2023-09-19T12:36:46;100514.59;;;20.12;nan
14343;BME280;7255;53.596;9.960;2023-09-19T12:39:23;100509.34;;;20.15;nan
14343;BME280;7255;53.596;9.960;2023-09-19T12:41:51;100507.81;;;20.28;nan
14343;BME280;7255;53.596;9.960;2023-09-19T12:44:18;100524.81;;;20.58;nan
14343;BME280;7255;53.596;9.960;2023-09-19T12:46:45;100506.56;;;20.21;nan
14343;BME280;7255;53.596;9.960;2023-09-19T12:49:15;100518.41;;;20.49;nan
14343;BME280;7255;53.596;9.960;2023-09-19T12:51:42;100518.81;;;20.94;nan
14343;BME280;7255;53.596;9.960;2023-09-19T12:54:09;100507.13;;;20.55;nan
14343;BME280;7255;53.596;9.960;2023-09-19T12:56:40;100501.81;;;20.45;nan
14343;BME280;7255;53.596;9.960;2023-09-19T12:59:10;100512.72;;;20.45;nan
14343;BME280;7255;53.596;9.960;2023-09-19T13:01:38;100505.88;;;20.48;nan
14343;BME280;7255;53.596;9.960;2023-09-19T13:04:15;100499.16;;;20.78;nan
14343;BME280;7255;53.596;9.960;2023-09-19T13:06:44;100501.22;;;20.86;nan
14343;BME280;7255;53.596;9.960;2023-09-19T13:09:14;100494.59;;;20.73;nan
14343;BME280;7255;53.596;9.960;2023-09-19T13:11:43;100486.25;;;20.98;nan
14343;BME280;7255;53.596;9.960;2023-09-19T13:14:15;100508.66;;;21.27;nan
14343;BME280;7255;53.596;9.960;2023-09-19T13:16:53;100490.28;;;21.00;nan
14343;BME280;7255;53.596;9.960;2023-09-19T13:19:35;100480.59;;;20.94;nan
14343;BME280;7255;53.596;9.960;2023-09-19T13:22:01;100471.47;;;20.99;nan
14343;BME280;7255;53.596;9.960;2023-09-19T13:24:28;100473.66;;;21.15;nan
14343;BME280;7255;53.596;9.960;2023-09-19T13:26:57;100474.56;;;21.25;nan
14343;BME280;7255;53.596;9.960;2023-09-19T13:29:25;100462.19;;;21.00;nan
14343;BME280;7255;53.596;9.960;2023-09-19T13:31:52;100478.09;;;20.65;nan
14343;BME280;7255;53.596;9.960;2023-09-19T13:34:19;100479.00;;;21.07;nan